^^

..:: Storico WU ::..




Lo storico viene creato da WUnderground con i dati che la stazione Meteomincio invia al loro server. L' aggiornamento viene fatto ogni 5 minuti circa, tuttavia possono esserci intervalli pił ampi a causa di errori, interruzioni di servizio o problemi nell' invio tramite FTP.


Storico stazione MeteoMincio
Giorno Sommario per Marzo 26, 2022 Unità:  Inglese    Metrico   Entrambi
Giorno Settimana Mese Anno
  Max: Min: Media:
Temperatura: 71.6 °F 37.4 °F 54.9 °F
Dew Point: 42.8 °F 28.4 °F 35.6 °F
Umidità: 77% 25% 52%
Velocità vento: 8.7mph 0mph 3mph
Raffica: 13mph - -
Direzione- - South
Pressione: 30.4 in 30.3 in -
Precipitazioni: 0 in    
 
 
Tabulato Dati per Marzo 26, 2022
Ora Temperatura Dew Point Pressione Direzione Velocità vento Raffica Umidità Intensità pioggia (oraria) Info solare Situazione
00:04 46.4 °F 35.6 °F 30.3 in East 1.2 mph 3.1 mph 66% 0 in 0.00 W/m2 unknown
00:09 46.4 °F 35.6 °F 30.3 in Calm   1.9 mph 67% 0 in 0.00 W/m2 unknown
00:14 46.4 °F 35.6 °F 30.3 in Calm     67% 0 in 0.00 W/m2 unknown
00:19 46.4 °F 35.6 °F 30.3 in Calm     67% 0 in 0.00 W/m2 unknown
00:24 44.6 °F 35.6 °F 30.3 in Calm     69% 0 in 0.00 W/m2 unknown
00:29 44.6 °F 35.6 °F 30.3 in Calm     69% 0 in 0.00 W/m2 unknown
00:34 44.6 °F 35.6 °F 30.3 in Calm     70% 0 in 0.00 W/m2 unknown
00:39 44.6 °F 35.6 °F 30.3 in NNW 2.5 mph 3.7 mph 70% 0 in 0.00 W/m2 unknown
00:44 44.6 °F 33.8 °F 30.3 in NNW 3.1 mph 3.7 mph 68% 0 in 0.00 W/m2 unknown
00:49 44.6 °F 33.8 °F 30.3 in NNW 1.9 mph 3.7 mph 67% 0 in 0.00 W/m2 unknown
00:54 44.6 °F 33.8 °F 30.3 in NNW 1.9 mph 3.1 mph 67% 0 in 0.00 W/m2 unknown
00:59 42.8 °F 32 °F 30.3 in NNW 1.9 mph 3.7 mph 68% 0 in 0.00 W/m2 unknown
01:04 41 °F 32 °F 30.3 in NW 2.5 mph 3.7 mph 69% 0 in 0.00 W/m2 unknown
01:09 41 °F 32 °F 30.3 in WNW 5 mph 6.2 mph 71% 0 in 0.00 W/m2 unknown
01:14 41 °F 32 °F 30.3 in WNW 5 mph 6.2 mph 71% 0 in 0.00 W/m2 unknown
01:19 42.8 °F 32 °F 30.3 in WNW 4.3 mph 6.2 mph 69% 0 in 0.00 W/m2 unknown
01:24 42.8 °F 32 °F 30.3 in NNW 2.5 mph 3.7 mph 68% 0 in 0.00 W/m2 unknown
01:29 42.8 °F 32 °F 30.3 in NNW 2.5 mph 3.7 mph 66% 0 in 0.00 W/m2 unknown
01:34 42.8 °F 32 °F 30.3 in NNW 2.5 mph 3.7 mph 65% 0 in 0.00 W/m2 unknown
01:39 44.6 °F 32 °F 30.3 in North 2.5 mph 3.7 mph 65% 0 in 0.00 W/m2 unknown
01:44 44.6 °F 32 °F 30.3 in NNW 3.1 mph 3.7 mph 64% 0 in 0.00 W/m2 unknown
01:49 44.6 °F 33.8 °F 30.3 in North 3.1 mph 3.7 mph 64% 0 in 0.00 W/m2 unknown
01:54 44.6 °F 32 °F 30.3 in North 3.7 mph 5 mph 63% 0 in 0.00 W/m2 unknown
01:59 44.6 °F 32 °F 30.3 in North 3.1 mph 5 mph 61% 0 in 0.00 W/m2 unknown
02:04 44.6 °F 32 °F 30.3 in North 3.7 mph 3.7 mph 61% 0 in 0.00 W/m2 unknown
02:09 46.4 °F 32 °F 30.3 in NNE 3.7 mph 3.7 mph 60% 0 in 0.00 W/m2 unknown
02:14 46.4 °F 33.8 °F 30.3 in NNE 3.1 mph 3.7 mph 61% 0 in 0.00 W/m2 unknown
02:19 46.4 °F 32 °F 30.3 in North 2.5 mph 3.7 mph 61% 0 in 0.00 W/m2 unknown
02:24 44.6 °F 32 °F 30.3 in NNE 2.5 mph 3.7 mph 63% 0 in 0.00 W/m2 unknown
02:29 44.6 °F 32 °F 30.3 in NNE 1.9 mph 3.1 mph 64% 0 in 0.00 W/m2 unknown
02:34 42.8 °F 32 °F 30.3 in NNE 1.2 mph 2.5 mph 65% 0 in 0.00 W/m2 unknown
02:39 42.8 °F 32 °F 30.3 in NNE 1.2 mph 2.5 mph 68% 0 in 0.00 W/m2 unknown
02:44 42.8 °F 32 °F 30.3 in NNE 1.9 mph 2.5 mph 70% 0 in 0.00 W/m2 unknown
02:49 41 °F 33.8 °F 30.3 in NNE 1.9 mph 2.5 mph 71% 0 in 0.00 W/m2 unknown
02:54 41 °F 33.8 °F 30.3 in NNE 1.9 mph 2.5 mph 71% 0 in 0.00 W/m2 unknown
02:59 42.8 °F 32 °F 30.3 in NNE 1.2 mph 1.9 mph 70% 0 in 0.00 W/m2 unknown
03:04 41 °F 32 °F 30.3 in North 1.9 mph 2.5 mph 71% 0 in 0.00 W/m2 unknown
03:09 41 °F 32 °F 30.3 in NW 1.9 mph 2.5 mph 72% 0 in 0.00 W/m2 unknown
03:14 41 °F 32 °F 30.3 in NW 1.9 mph 2.5 mph 72% 0 in 0.00 W/m2 unknown
03:19 41 °F 32 °F 30.3 in NW 1.9 mph 2.5 mph 70% 0 in 0.00 W/m2 unknown
03:24 41 °F 32 °F 30.3 in NW 1.2 mph 2.5 mph 70% 0 in 0.00 W/m2 unknown
03:29 42.8 °F 32 °F 30.3 in NW 1.9 mph 2.5 mph 69% 0 in 0.00 W/m2 unknown
03:34 42.8 °F 32 °F 30.3 in NW 1.9 mph 2.5 mph 69% 0 in 0.00 W/m2 unknown
03:39 41 °F 32 °F 30.3 in NW 1.2 mph 1.9 mph 70% 0 in 0.00 W/m2 unknown
03:44 41 °F 32 °F 30.3 in NW 1.2 mph 1.2 mph 70% 0 in 0.00 W/m2 unknown
03:49 41 °F 32 °F 30.3 in NW 1.9 mph 2.5 mph 70% 0 in 0.00 W/m2 unknown
03:54 41 °F 32 °F 30.3 in NW 1.2 mph 1.9 mph 71% 0 in 0.00 W/m2 unknown
03:59 41 °F 32 °F 30.3 in Calm   1.2 mph 71% 0 in 0.00 W/m2 unknown
04:04 41 °F 32 °F 30.3 in WSW 3.1 mph 3.7 mph 70% 0 in 0.00 W/m2 unknown
04:09 39.2 °F 30.2 °F 30.3 in WSW 3.7 mph 5 mph 71% 0 in 0.00 W/m2 unknown
04:14 39.2 °F 30.2 °F 30.3 in WSW 1.9 mph 5 mph 72% 0 in 0.00 W/m2 unknown
04:19 39.2 °F 30.2 °F 30.3 in WSW 3.1 mph 3.7 mph 72% 0 in 0.00 W/m2 unknown
04:24 39.2 °F 30.2 °F 30.3 in WSW 3.7 mph 3.7 mph 71% 0 in 0.00 W/m2 unknown
04:29 37.4 °F 30.2 °F 30.3 in WSW 3.1 mph 3.7 mph 72% 0 in 0.00 W/m2 unknown
04:34 39.2 °F 30.2 °F 30.3 in WSW 2.5 mph 3.7 mph 72% 0 in 0.00 W/m2 unknown
04:39 39.2 °F 30.2 °F 30.3 in WSW 3.1 mph 3.7 mph 71% 0 in 0.00 W/m2 unknown
04:44 39.2 °F 30.2 °F 30.3 in WSW 3.7 mph 3.7 mph 70% 0 in 0.00 W/m2 unknown
04:49 39.2 °F 30.2 °F 30.3 in WSW 3.7 mph 5 mph 70% 0 in 0.00 W/m2 unknown
04:54 39.2 °F 30.2 °F 30.3 in WSW 3.7 mph 5 mph 71% 0 in 0.00 W/m2 unknown
04:59 39.2 °F 30.2 °F 30.3 in West 2.5 mph 3.7 mph 71% 0 in 0.00 W/m2 unknown
05:04 39.2 °F 30.2 °F 30.3 in West 2.5 mph 3.7 mph 70% 0 in 0.00 W/m2 unknown
05:09 39.2 °F 30.2 °F 30.3 in West 2.5 mph 3.7 mph 71% 0 in 0.00 W/m2 unknown
05:14 37.4 °F 30.2 °F 30.3 in West 2.5 mph 3.7 mph 71% 0 in 0.00 W/m2 unknown
05:19 37.4 °F 30.2 °F 30.3 in West 2.5 mph 3.7 mph 72% 0 in 0.00 W/m2 unknown
05:24 37.4 °F 30.2 °F 30.3 in West 2.5 mph 3.7 mph 73% 0 in 0.00 W/m2 unknown
05:29 37.4 °F 30.2 °F 30.3 in WSW 2.5 mph 3.7 mph 73% 0 in 0.00 W/m2 unknown
05:34 37.4 °F 30.2 °F 30.3 in WSW 1.9 mph 3.1 mph 72% 0 in 0.00 W/m2 unknown
05:39 37.4 °F 30.2 °F 30.3 in West 1.9 mph 3.7 mph 72% 0 in 0.00 W/m2 unknown
05:44 37.4 °F 30.2 °F 30.3 in WSW 3.1 mph 3.7 mph 72% 0 in 0.00 W/m2 unknown
05:49 37.4 °F 30.2 °F 30.3 in WSW 3.1 mph 3.7 mph 73% 0 in 0.00 W/m2 unknown
05:54 37.4 °F 28.4 °F 30.3 in WSW 2.5 mph 3.7 mph 73% 0 in 0.00 W/m2 unknown
05:59 37.4 °F 30.2 °F 30.3 in West 1.9 mph 3.7 mph 73% 0 in 0.00 W/m2 unknown
06:04 37.4 °F 30.2 °F 30.3 in West 1.2 mph 3.1 mph 73% 0 in 0.00 W/m2 unknown
06:09 37.4 °F 30.2 °F 30.3 in Calm     73% 0 in 0.00 W/m2 unknown
06:14 37.4 °F 30.2 °F 30.3 in WSW 1.2 mph 3.1 mph 73% 0 in 7.00 W/m2 unknown
06:19 37.4 °F 28.4 °F 30.3 in WSW 2.5 mph 3.7 mph 73% 0 in 9.00 W/m2 unknown
06:24 37.4 °F 30.2 °F 30.3 in WSW 1.9 mph 3.1 mph 74% 0 in 12.00 W/m2 unknown
06:29 37.4 °F 30.2 °F 30.3 in WSW 1.2 mph 2.5 mph 74% 0 in 16.00 W/m2 unknown
06:34 37.4 °F 30.2 °F 30.3 in Calm   1.9 mph 73% 0 in 19.00 W/m2 unknown
06:39 37.4 °F 30.2 °F 30.3 in WSW 1.2 mph 1.2 mph 73% 0 in 25.00 W/m2 unknown
06:44 39.2 °F 32 °F 30.3 in WSW 1.2 mph 1.2 mph 77% 0 in 28.00 W/m2 unknown
06:49 39.2 °F 30.2 °F 30.3 in Calm   1.2 mph 72% 0 in 35.00 W/m2 unknown
06:54 39.2 °F 30.2 °F 30.3 in West 1.2 mph 2.5 mph 72% 0 in 42.00 W/m2 unknown
06:59 39.2 °F 30.2 °F 30.3 in WNW 2.5 mph 3.7 mph 72% 0 in 49.00 W/m2 unknown
07:04 39.2 °F 32 °F 30.3 in WNW 1.9 mph 3.7 mph 72% 0 in 60.00 W/m2 unknown
07:09 39.2 °F 32 °F 30.3 in West 1.9 mph 3.1 mph 72% 0 in 70.00 W/m2 unknown
07:14 39.2 °F 32 °F 30.3 in WNW 1.9 mph 3.7 mph 72% 0 in 83.00 W/m2 unknown
07:19 41 °F 32 °F 30.3 in WNW 1.2 mph 3.1 mph 72% 0 in 97.00 W/m2 unknown
07:24 41 °F 32 °F 30.3 in West 3.1 mph 3.7 mph 70% 0 in 107.00 W/m2 unknown
07:29 41 °F 32 °F 30.3 in West 3.1 mph 3.7 mph 71% 0 in 123.00 W/m2 unknown
07:34 41 °F 33.8 °F 30.3 in West 0.6 mph 3.1 mph 72% 0 in 135.00 W/m2 unknown
07:39 42.8 °F 33.8 °F 30.3 in NW 1.2 mph 2.5 mph 72% 0 in 151.00 W/m2 unknown
07:44 44.6 °F 33.8 °F 30.3 in NNE 1.2 mph 1.9 mph 69% 0 in 163.00 W/m2 unknown
07:49 44.6 °F 33.8 °F 30.3 in Calm   1.2 mph 69% 0 in 176.00 W/m2 unknown
07:54 44.6 °F 33.8 °F 30.3 in North 1.2 mph 1.2 mph 66% 0 in 188.00 W/m2 unknown
07:59 46.4 °F 33.8 °F 30.3 in WNW 3.1 mph 3.7 mph 64% 0 in 202.00 W/m2 unknown
08:04 46.4 °F 33.8 °F 30.3 in WNW 3.1 mph 3.7 mph 64% 0 in 213.00 W/m2 unknown
08:09 46.4 °F 35.6 °F 30.3 in NW 1.9 mph 3.1 mph 64% 0 in 227.00 W/m2 unknown
08:14 48.2 °F 35.6 °F 30.3 in WNW 1.2 mph 2.5 mph 63% 0 in 237.00 W/m2 unknown
08:19 48.2 °F 35.6 °F 30.3 in West 1.9 mph 3.1 mph 63% 0 in 221.00 W/m2 unknown
08:24 48.2 °F 37.4 °F 30.3 in WSW 1.9 mph 3.7 mph 66% 0 in 269.00 W/m2 unknown
08:29 50 °F 37.4 °F 30.3 in NW 1.2 mph 2.5 mph 66% 0 in 279.00 W/m2 unknown
08:34 50 °F 37.4 °F 30.3 in NNW 1.2 mph 2.5 mph 61% 0 in 292.00 W/m2 unknown
08:39 51.8 °F 37.4 °F 30.3 in NNW 0.6 mph 1.9 mph 60% 0 in 302.00 W/m2 unknown
08:44 51.8 °F 37.4 °F 30.3 in NNW 0.6 mph 1.2 mph 57% 0 in 318.00 W/m2 unknown
08:49 51.8 °F 37.4 °F 30.3 in NNW 0.6 mph 1.2 mph 58% 0 in 330.00 W/m2 unknown
08:54 51.8 °F 37.4 °F 30.3 in NW 0.6 mph 1.9 mph 57% 0 in 343.00 W/m2 unknown
08:59 53.6 °F 39.2 °F 30.3 in WNW 1.2 mph 2.5 mph 58% 0 in 357.00 W/m2 unknown
09:04 53.6 °F 39.2 °F 30.3 in West 1.2 mph 2.5 mph 58% 0 in 369.00 W/m2 unknown
09:09 55.4 °F 39.2 °F 30.3 in WNW 1.2 mph 2.5 mph 58% 0 in 383.00 W/m2 unknown
09:14 55.4 °F 39.2 °F 30.3 in NW 1.2 mph 2.5 mph 56% 0 in 392.00 W/m2 unknown
09:19 55.4 °F 39.2 °F 30.3 in NW 0.6 mph 2.5 mph 56% 0 in 406.00 W/m2 unknown
09:24 55.4 °F 39.2 °F 30.3 in West 1.9 mph 2.5 mph 53% 0 in 422.00 W/m2 unknown
09:29 57.2 °F 41 °F 30.3 in West 1.2 mph 2.5 mph 55% 0 in 434.00 W/m2 unknown
09:34 57.2 °F 41 °F 30.3 in SW 2.5 mph 3.7 mph 55% 0 in 450.00 W/m2 unknown
09:39 57.2 °F 39.2 °F 30.4 in SW 2.5 mph 3.7 mph 51% 0 in 461.00 W/m2 unknown
09:44 59 °F 39.2 °F 30.4 in SW 3.1 mph 3.7 mph 50% 0 in 471.00 W/m2 unknown
09:49 59 °F 39.2 °F 30.3 in SW 3.1 mph 3.7 mph 48% 0 in 476.00 W/m2 unknown
09:54 59 °F 39.2 °F 30.4 in SSW 3.1 mph 3.7 mph 49% 0 in 490.00 W/m2 unknown
09:59 59 °F 37.4 °F 30.4 in SW 3.1 mph 3.7 mph 45% 0 in 501.00 W/m2 unknown
10:04 59 °F 37.4 °F 30.4 in WNW 1.9 mph 3.7 mph 45% 0 in 512.00 W/m2 unknown
10:09 60.8 °F 39.2 °F 30.4 in SW 1.9 mph 3.7 mph 47% 0 in 522.00 W/m2 unknown
10:14 60.8 °F 39.2 °F 30.4 in SSE 2.5 mph 3.7 mph 46% 0 in 534.00 W/m2 unknown
10:19 60.8 °F 39.2 °F 30.4 in SSW 2.5 mph 3.7 mph 44% 0 in 543.00 W/m2 unknown
10:24 60.8 °F 39.2 °F 30.4 in SW 2.5 mph 3.7 mph 44% 0 in 550.00 W/m2 unknown
10:29 62.6 °F 41 °F 30.4 in WNW 1.9 mph 3.7 mph 45% 0 in 557.00 W/m2 unknown
10:34 62.6 °F 42.8 °F 30.4 in NW 3.1 mph 5 mph 47% 0 in 564.00 W/m2 unknown
10:39 62.6 °F 39.2 °F 30.4 in East 4.3 mph 6.2 mph 43% 0 in 575.00 W/m2 unknown
10:44 62.6 °F 39.2 °F 30.3 in East 3.7 mph 6.2 mph 43% 0 in 585.00 W/m2 unknown
10:49 64.4 °F 39.2 °F 30.3 in ESE 3.1 mph 6.2 mph 42% 0 in 591.00 W/m2 unknown
10:54 64.4 °F 39.2 °F 30.3 in SE 3.1 mph 6.2 mph 40% 0 in 599.00 W/m2 unknown
10:59 62.6 °F 39.2 °F 30.3 in ESE 3.1 mph 6.2 mph 41% 0 in 605.00 W/m2 unknown
11:04 64.4 °F 39.2 °F 30.3 in ESE 5.6 mph 8.1 mph 40% 0 in 613.00 W/m2 unknown
11:09 64.4 °F 41 °F 30.3 in East 5 mph 8.1 mph 42% 0 in 621.00 W/m2 unknown
11:14 64.4 °F 39.2 °F 30.3 in ESE 5.6 mph 8.1 mph 40% 0 in 628.00 W/m2 unknown
11:19 66.2 °F 39.2 °F 30.3 in East 8.1 mph 11.8 mph 39% 0 in 633.00 W/m2 unknown
11:24 64.4 °F 39.2 °F 30.3 in SE 5 mph 11.8 mph 40% 0 in 640.00 W/m2 unknown
11:29 66.2 °F 39.2 °F 30.3 in ESE 8.1 mph 10.6 mph 40% 0 in 645.00 W/m2 unknown
11:34 66.2 °F 37.4 °F 30.3 in East 5 mph 9.9 mph 37% 0 in 650.00 W/m2 unknown
11:39 66.2 °F 39.2 °F 30.3 in ENE 7.5 mph 10.6 mph 37% 0 in 656.00 W/m2 unknown
11:44 66.2 °F 39.2 °F 30.3 in NE 6.8 mph 8.1 mph 38% 0 in 659.00 W/m2 unknown
11:49 66.2 °F 39.2 °F 30.3 in East 6.2 mph 8.1 mph 38% 0 in 661.00 W/m2 unknown
11:54 66.2 °F 39.2 °F 30.3 in ENE 5 mph 8.1 mph 38% 0 in 663.00 W/m2 unknown
11:59 66.2 °F 39.2 °F 30.3 in ESE 5.6 mph 6.8 mph 38% 0 in 666.00 W/m2 unknown
12:04 66.2 °F 39.2 °F 30.3 in ENE 2.5 mph 6.8 mph 36% 0 in 668.00 W/m2 unknown
12:09 68 °F 41 °F 30.3 in NE 7.5 mph 10.6 mph 38% 0 in 675.00 W/m2 unknown
12:14 68 °F 41 °F 30.3 in South 6.8 mph 9.9 mph 38% 0 in 675.00 W/m2 unknown
12:19 68 °F 41 °F 30.3 in South 4.3 mph 6.8 mph 38% 0 in 679.00 W/m2 unknown
12:24 68 °F 41 °F 30.3 in SSW 5.6 mph 8.7 mph 39% 0 in 679.00 W/m2 unknown
12:29 68 °F 41 °F 30.3 in South 5.6 mph 9.3 mph 39% 0 in 680.00 W/m2 unknown
12:34 68 °F 41 °F 30.3 in East 3.1 mph 8.7 mph 37% 0 in 682.00 W/m2 unknown
12:39 68 °F 41 °F 30.3 in ESE 3.1 mph 6.8 mph 38% 0 in 686.00 W/m2 unknown
12:44 68 °F 41 °F 30.3 in ESE 6.2 mph 8.1 mph 38% 0 in 687.00 W/m2 unknown
12:49 68 °F 41 °F 30.3 in South 5 mph 8.1 mph 37% 0 in 687.00 W/m2 unknown
12:54 69.8 °F 41 °F 30.3 in SSE 5.6 mph 8.1 mph 36% 0 in 682.00 W/m2 unknown
12:59 69.8 °F 42.8 °F 30.3 in South 6.2 mph 8.1 mph 38% 0 in 682.00 W/m2 unknown
13:04 69.8 °F 42.8 °F 30.3 in SSW 5.6 mph 8.1 mph 37% 0 in 680.00 W/m2 unknown
13:09 69.8 °F 41 °F 30.3 in SSW 5.6 mph 8.1 mph 36% 0 in 680.00 W/m2 unknown
13:14 69.8 °F 41 °F 30.3 in SW 5 mph 8.1 mph 35% 0 in 677.00 W/m2 unknown
13:19 69.8 °F 41 °F 30.3 in WSW 6.8 mph 9.3 mph 36% 0 in 680.00 W/m2 unknown
13:24 69.8 °F 41 °F 30.3 in South 6.2 mph 8.1 mph 35% 0 in 677.00 W/m2 unknown
13:29 69.8 °F 39.2 °F 30.3 in SSW 6.2 mph 8.1 mph 34% 0 in 684.00 W/m2 unknown
13:34 69.8 °F 41 °F 30.3 in South 2.5 mph 6.2 mph 34% 0 in 670.00 W/m2 unknown
13:39 69.8 °F 39.2 °F 30.3 in South 3.1 mph 8.1 mph 34% 0 in 666.00 W/m2 unknown
13:44 69.8 °F 39.2 °F 30.3 in ENE 5.6 mph 8.1 mph 32% 0 in 664.00 W/m2 unknown
13:49 69.8 °F 37.4 °F 30.3 in NE 5.6 mph 8.1 mph 31% 0 in 661.00 W/m2 unknown
13:54 69.8 °F 37.4 °F 30.3 in NNE 3.1 mph 8.1 mph 30% 0 in 668.00 W/m2 unknown
13:59 69.8 °F 37.4 °F 30.3 in SE 4.3 mph 6.2 mph 31% 0 in 656.00 W/m2 unknown
14:04 69.8 °F 37.4 °F 30.3 in ESE 8.7 mph 10.6 mph 31% 0 in 656.00 W/m2 unknown
14:09 69.8 °F 37.4 °F 30.3 in SE 5 mph 9.9 mph 31% 0 in 656.00 W/m2 unknown
14:14 69.8 °F 35.6 °F 30.3 in ESE 8.7 mph 11.8 mph 29% 0 in 650.00 W/m2 unknown
14:19 69.8 °F 35.6 °F 30.3 in SE 6.2 mph 11.8 mph 29% 0 in 633.00 W/m2 unknown
14:24 69.8 °F 37.4 °F 30.3 in SW 5 mph 8.1 mph 29% 0 in 628.00 W/m2 unknown
14:29 69.8 °F 35.6 °F 30.3 in East 6.8 mph 11.8 mph 28% 0 in 608.00 W/m2 unknown
14:34 69.8 °F 35.6 °F 30.3 in East 8.7 mph 11.8 mph 28% 0 in 603.00 W/m2 unknown
14:39 69.8 °F 37.4 °F 30.3 in East 8.1 mph 11.8 mph 29% 0 in 585.00 W/m2 unknown
14:44 71.6 °F 37.4 °F 30.3 in ENE 8.1 mph 13 mph 29% 0 in 566.00 W/m2 unknown
14:49 71.6 °F 35.6 °F 30.3 in ENE 8.7 mph 13 mph 28% 0 in 561.00 W/m2 unknown
14:54 71.6 °F 37.4 °F 30.3 in ESE 5.6 mph 11.8 mph 29% 0 in 545.00 W/m2 unknown
14:59 71.6 °F 37.4 °F 30.3 in ENE 8.7 mph 11.8 mph 29% 0 in 540.00 W/m2 unknown
15:04 71.6 °F 37.4 °F 30.3 in ESE 6.8 mph 11.8 mph 28% 0 in 538.00 W/m2 unknown
15:09 71.6 °F 35.6 °F 30.3 in East 8.7 mph 11.8 mph 27% 0 in 527.00 W/m2 unknown
15:14 71.6 °F 35.6 °F 30.3 in East 7.5 mph 11.8 mph 27% 0 in 506.00 W/m2 unknown
15:19 71.6 °F 35.6 °F 30.3 in East 8.7 mph 11.8 mph 27% 0 in 483.00 W/m2 unknown
15:24 71.6 °F 35.6 °F 30.3 in ENE 6.8 mph 11.8 mph 27% 0 in 490.00 W/m2 unknown
15:29 71.6 °F 33.8 °F 30.3 in ENE 8.1 mph 10.6 mph 26% 0 in 492.00 W/m2 unknown
15:34 71.6 °F 35.6 °F 30.3 in ENE 6.8 mph 9.9 mph 27% 0 in 459.00 W/m2 unknown
15:39 71.6 °F 35.6 °F 30.3 in ENE 8.1 mph 11.8 mph 27% 0 in 434.00 W/m2 unknown
15:44 71.6 °F 33.8 °F 30.3 in East 6.8 mph 9.9 mph 26% 0 in 422.00 W/m2 unknown
15:49 71.6 °F 33.8 °F 30.3 in ENE 7.5 mph 10.6 mph 25% 0 in 411.00 W/m2 unknown
15:54 71.6 °F 33.8 °F 30.3 in ESE 6.2 mph 9.9 mph 25% 0 in 401.00 W/m2 unknown
15:59 71.6 °F 35.6 °F 30.3 in SE 5.6 mph 8.1 mph 27% 0 in 396.00 W/m2 unknown
16:04 71.6 °F 33.8 °F 30.3 in SE 5.6 mph 8.1 mph 26% 0 in 380.00 W/m2 unknown
16:09 71.6 °F 35.6 °F 30.3 in East 6.2 mph 8.1 mph 27% 0 in 360.00 W/m2 unknown
16:14 71.6 °F 35.6 °F 30.3 in ENE 6.8 mph 9.3 mph 27% 0 in 346.00 W/m2 unknown
16:19 71.6 °F 33.8 °F 30.3 in ENE 6.8 mph 10.6 mph 26% 0 in 338.00 W/m2 unknown
16:24 71.6 °F 33.8 °F 30.3 in East 6.2 mph 9.9 mph 26% 0 in 320.00 W/m2 unknown
16:29 71.6 °F 33.8 °F 30.3 in ENE 5 mph 8.1 mph 26% 0 in 316.00 W/m2 unknown
16:34 71.6 °F 35.6 °F 30.3 in ESE 5 mph 6.8 mph 27% 0 in 295.00 W/m2 unknown
16:39 69.8 °F 35.6 °F 30.3 in SE 3.1 mph 6.8 mph 28% 0 in 283.00 W/m2 unknown
16:44 69.8 °F 35.6 °F 30.3 in ESE 2.5 mph 3.7 mph 28% 0 in 272.00 W/m2 unknown
16:49 71.6 °F 35.6 °F 30.3 in ESE 5.6 mph 8.1 mph 28% 0 in 260.00 W/m2 unknown
16:54 69.8 °F 33.8 °F 30.3 in SE 5.6 mph 8.1 mph 26% 0 in 241.00 W/m2 unknown
16:59 69.8 °F 35.6 °F 30.3 in SE 5.6 mph 8.1 mph 27% 0 in 229.00 W/m2 unknown
17:04 69.8 °F 35.6 °F 30.3 in SE 4.3 mph 8.1 mph 27% 0 in 220.00 W/m2 unknown
17:09 69.8 °F 35.6 °F 30.3 in SE 6.2 mph 8.1 mph 27% 0 in 207.00 W/m2 unknown
17:14 69.8 °F 35.6 °F 30.3 in SE 6.2 mph 8.1 mph 27% 0 in 186.00 W/m2 unknown
17:19 69.8 °F 33.8 °F 30.3 in SSE 5 mph 8.1 mph 27% 0 in 172.00 W/m2 unknown
17:24 69.8 °F 33.8 °F 30.3 in SE 5 mph 6.8 mph 27% 0 in 160.00 W/m2 unknown
17:29 69.8 °F 35.6 °F 30.3 in SE 3.1 mph 5 mph 29% 0 in 142.00 W/m2 unknown
17:34 69.8 °F 35.6 °F 30.3 in SSE 2.5 mph 5 mph 29% 0 in 60.00 W/m2 unknown
17:39 69.8 °F 35.6 °F 30.3 in SE 1.9 mph 3.7 mph 28% 0 in 79.00 W/m2 unknown
17:44 69.8 °F 35.6 °F 30.3 in SE 3.1 mph 5 mph 28% 0 in 84.00 W/m2 unknown
17:49 69.8 °F 35.6 °F 30.3 in SSE 3.1 mph 5 mph 29% 0 in 81.00 W/m2 unknown
17:54 68 °F 35.6 °F 30.3 in SSE 1.9 mph 3.7 mph 30% 0 in 69.00 W/m2 unknown
17:59 68 °F 35.6 °F 30.3 in SSE 1.9 mph 3.7 mph 30% 0 in 56.00 W/m2 unknown
18:04 68 °F 35.6 °F 30.3 in South 1.2 mph 3.7 mph 30% 0 in 46.00 W/m2 unknown
18:09 68 °F 37.4 °F 30.3 in SSE 1.9 mph 3.7 mph 32% 0 in 37.00 W/m2 unknown
18:14 68 °F 35.6 °F 30.3 in SSE 1.2 mph 3.1 mph 31% 0 in 28.00 W/m2 unknown
18:19 66.2 °F 35.6 °F 30.3 in South 2.5 mph 3.7 mph 31% 0 in 19.00 W/m2 unknown
18:24 66.2 °F 35.6 °F 30.3 in South 1.9 mph 3.7 mph 32% 0 in 16.00 W/m2 unknown
18:29 66.2 °F 35.6 °F 30.3 in South 2.5 mph 3.7 mph 34% 0 in 12.00 W/m2 unknown
18:34 66.2 °F 35.6 °F 30.3 in SSE 1.9 mph 3.7 mph 34% 0 in 9.00 W/m2 unknown
18:39 64.4 °F 35.6 °F 30.3 in SSE 1.2 mph 2.5 mph 35% 0 in 5.00 W/m2 unknown
18:44 64.4 °F 37.4 °F 30.3 in SSE 1.2 mph 1.9 mph 38% 0 in 0.00 W/m2 unknown
18:49 62.6 °F 37.4 °F 30.3 in South 1.9 mph 2.5 mph 38% 0 in 0.00 W/m2 unknown
18:54 62.6 °F 37.4 °F 30.3 in South 1.2 mph 2.5 mph 40% 0 in 0.00 W/m2 unknown
18:59 62.6 °F 37.4 °F 30.3 in South 1.2 mph 1.9 mph 41% 0 in 0.00 W/m2 unknown
19:04 60.8 °F 37.4 °F 30.3 in South 1.9 mph 3.7 mph 41% 0 in 0.00 W/m2 unknown
19:09 60.8 °F 37.4 °F 30.3 in South 1.2 mph 3.1 mph 41% 0 in 0.00 W/m2 unknown
19:14 60.8 °F 37.4 °F 30.3 in South 1.2 mph 2.5 mph 41% 0 in 0.00 W/m2 unknown
19:19 60.8 °F 37.4 °F 30.3 in South 1.2 mph 1.9 mph 42% 0 in 0.00 W/m2 unknown
19:24 59 °F 37.4 °F 30.3 in South 0.6 mph 1.2 mph 43% 0 in 0.00 W/m2 unknown
19:29 59 °F 37.4 °F 30.3 in South 0.6 mph 1.2 mph 44% 0 in 0.00 W/m2 unknown
19:34 59 °F 37.4 °F 30.3 in South 0.6 mph 1.2 mph 45% 0 in 0.00 W/m2 unknown
19:39 59 °F 37.4 °F 30.3 in South 0.6 mph 1.2 mph 45% 0 in 0.00 W/m2 unknown
19:44 57.2 °F 35.6 °F 30.3 in South 0.6 mph 1.2 mph 45% 0 in 0.00 W/m2 unknown
19:49 57.2 °F 37.4 °F 30.3 in SSW 1.2 mph 2.5 mph 46% 0 in 0.00 W/m2 unknown
19:54 57.2 °F 37.4 °F 30.3 in SW 1.2 mph 2.5 mph 47% 0 in 0.00 W/m2 unknown
19:59 57.2 °F 37.4 °F 30.3 in WNW 1.9 mph 3.7 mph 49% 0 in 0.00 W/m2 unknown
20:04 57.2 °F 37.4 °F 30.3 in NW 1.9 mph 3.1 mph 49% 0 in 0.00 W/m2 unknown
20:09 55.4 °F 37.4 °F 30.3 in NW 1.9 mph 2.5 mph 48% 0 in 0.00 W/m2 unknown
20:14 55.4 °F 37.4 °F 30.3 in NW 1.9 mph 2.5 mph 49% 0 in 0.00 W/m2 unknown
20:19 55.4 °F 37.4 °F 30.3 in NW 1.2 mph 2.5 mph 50% 0 in 0.00 W/m2 unknown
20:24 55.4 °F 37.4 °F 30.3 in NW 1.2 mph 2.5 mph 51% 0 in 0.00 W/m2 unknown
20:29 55.4 °F 37.4 °F 30.3 in NW 1.2 mph 1.9 mph 51% 0 in 0.00 W/m2 unknown
20:34 53.6 °F 37.4 °F 30.3 in NW 1.2 mph 1.2 mph 51% 0 in 0.00 W/m2 unknown
20:39 53.6 °F 35.6 °F 30.3 in NW 1.2 mph 1.2 mph 51% 0 in 0.00 W/m2 unknown
20:44 53.6 °F 35.6 °F 30.3 in Calm   1.2 mph 51% 0 in 0.00 W/m2 unknown
20:49 53.6 °F 35.6 °F 30.3 in Calm   1.2 mph 53% 0 in 0.00 W/m2 unknown
20:54 53.6 °F 35.6 °F 30.3 in NW 1.2 mph 2.5 mph 53% 0 in 0.00 W/m2 unknown
20:59 53.6 °F 37.4 °F 30.3 in NW 1.2 mph 2.5 mph 55% 0 in 0.00 W/m2 unknown
21:04 53.6 °F 37.4 °F 30.3 in NW 1.2 mph 2.5 mph 55% 0 in 0.00 W/m2 unknown
21:09 53.6 °F 37.4 °F 30.3 in Calm   1.9 mph 55% 0 in 0.00 W/m2 unknown
21:14 51.8 °F 37.4 °F 30.3 in North 2.5 mph 3.7 mph 57% 0 in 0.00 W/m2 unknown
21:19 51.8 °F 37.4 °F 30.3 in North 2.5 mph 3.7 mph 57% 0 in 0.00 W/m2 unknown
21:24 51.8 °F 37.4 °F 30.3 in North 1.9 mph 3.1 mph 56% 0 in 0.00 W/m2 unknown
21:29 51.8 °F 37.4 °F 30.3 in North 1.9 mph 3.1 mph 58% 0 in 0.00 W/m2 unknown
21:34 51.8 °F 37.4 °F 30.3 in North 1.9 mph 3.7 mph 57% 0 in 0.00 W/m2 unknown
21:39 51.8 °F 37.4 °F 30.3 in NE 3.1 mph 3.7 mph 56% 0 in 0.00 W/m2 unknown
21:44 53.6 °F 37.4 °F 30.3 in NE 4.3 mph 5 mph 55% 0 in 0.00 W/m2 unknown
21:49 53.6 °F 35.6 °F 30.3 in NE 3.7 mph 5 mph 53% 0 in 0.00 W/m2 unknown
21:54 53.6 °F 37.4 °F 30.3 in ENE 2.5 mph 3.7 mph 56% 0 in 0.00 W/m2 unknown
21:59 51.8 °F 37.4 °F 30.3 in ENE 1.9 mph 3.7 mph 59% 0 in 0.00 W/m2 unknown
22:04 50 °F 37.4 °F 30.3 in ENE 1.9 mph 3.7 mph 64% 0 in 0.00 W/m2 unknown
22:09 50 °F 37.4 °F 30.3 in ENE 1.9 mph 3.1 mph 66% 0 in 0.00 W/m2 unknown
22:14 48.2 °F 37.4 °F 30.3 in ENE 1.2 mph 2.5 mph 67% 0 in 0.00 W/m2 unknown
22:19 48.2 °F 37.4 °F 30.3 in ENE 1.9 mph 2.5 mph 68% 0 in 0.00 W/m2 unknown
22:24 48.2 °F 37.4 °F 30.3 in ENE 1.9 mph 2.5 mph 68% 0 in 0.00 W/m2 unknown
22:29 48.2 °F 37.4 °F 30.3 in ENE 1.2 mph 1.9 mph 67% 0 in 0.00 W/m2 unknown
22:34 50 °F 37.4 °F 30.3 in NE 1.9 mph 3.7 mph 65% 0 in 0.00 W/m2 unknown
22:39 50 °F 37.4 °F 30.3 in NE 1.9 mph 3.7 mph 64% 0 in 0.00 W/m2 unknown
22:44 50 °F 37.4 °F 30.3 in NE 1.9 mph 3.1 mph 64% 0 in 0.00 W/m2 unknown
22:49 50 °F 37.4 °F 30.3 in NE 3.1 mph 3.7 mph 63% 0 in 0.00 W/m2 unknown
22:54 51.8 °F 37.4 °F 30.3 in NE 3.7 mph 5 mph 61% 0 in 0.00 W/m2 unknown
22:59 51.8 °F 37.4 °F 30.3 in NE 4.3 mph 5 mph 59% 0 in 0.00 W/m2 unknown
23:04 51.8 °F 37.4 °F 30.3 in ENE 4.3 mph 5 mph 57% 0 in 0.00 W/m2 unknown
23:09 51.8 °F 37.4 °F 30.3 in ENE 3.1 mph 5 mph 58% 0 in 0.00 W/m2 unknown
23:14 50 °F 37.4 °F 30.3 in ENE 2.5 mph 5 mph 59% 0 in 0.00 W/m2 unknown
23:19 50 °F 37.4 °F 30.3 in ENE 1.9 mph 3.1 mph 60% 0 in 0.00 W/m2 unknown
23:24 50 °F 37.4 °F 30.3 in ENE 1.9 mph 2.5 mph 62% 0 in 0.00 W/m2 unknown
23:29 50 °F 37.4 °F 30.3 in ENE 2.5 mph 3.7 mph 63% 0 in 0.00 W/m2 unknown
23:34 48.2 °F 37.4 °F 30.3 in NE 2.5 mph 3.7 mph 64% 0 in 0.00 W/m2 unknown
23:39 48.2 °F 37.4 °F 30.3 in NE 2.5 mph 3.7 mph 66% 0 in 0.00 W/m2 unknown
23:44 48.2 °F 37.4 °F 30.3 in NE 2.5 mph 3.7 mph 66% 0 in 0.00 W/m2 unknown
23:49 48.2 °F 37.4 °F 30.3 in NE 2.5 mph 3.7 mph 66% 0 in 0.00 W/m2 unknown
23:54 48.2 °F 37.4 °F 30.3 in NE 3.1 mph 3.7 mph 66% 0 in 0.00 W/m2 unknown
23:59 48.2 °F 37.4 °F 30.3 in NE 3.1 mph 3.7 mph 66% 0 in 0.00 W/m2 unknown
Stazione Meteorologica MeteoMincio Rivalta s/M (MN)
Con i complimenti di Weather Underground - 4 mb



GLOSSARIO METEOROLOGICO
Vento
Il vento è prodotto dalla differenza di pressione tra due zone e serve per ristabilirne l'equilibrio. Dalla zona con pressione più alta l'aria affluisce a quella con pressione inferiore. Più le isobare (linee di ugual pressione) sono ravvicinate e più la forza del vento sarà intensa. Il vento è classificato dalla scala Beaufort. E' definito dalla sua direzione e dalla sua forza o, più esattamente, dalla sua velocità. Vento, pressione atmosferica e temperatura stanno in rapporto funzionale con l'andamento del tempo.
Share

Non seguire questo link o sarai bannato dal sito!